Aviation Digital Data Service (ADDS)

Output produced by METARs form (1111 UTC 30 July 2016)
found at http://aviationweather.gov/adds/metars/
 
KAEX 301053Z AUTO 00000KT 9SM CLR 24/24 A2999 RMK AO2 SLP158 T02440239